createdAt,value
2018-11-14T00:01:11.910Z,3.92
2018-11-14T00:03:40.936Z,4.15
2018-11-14T00:06:10.078Z,3.58
2018-11-14T00:08:39.180Z,4.05
2018-11-14T00:11:08.361Z,3.90
2018-11-14T00:13:37.589Z,4.05
2018-11-14T00:16:07.284Z,4.28
2018-11-14T00:18:36.267Z,4.40
2018-11-14T00:21:05.368Z,4.30
2018-11-14T00:23:34.461Z,4.60
2018-11-14T00:26:03.528Z,4.63
2018-11-14T00:28:32.706Z,4.33
2018-11-14T00:31:01.782Z,4.80
2018-11-14T00:33:30.893Z,3.60
2018-11-14T00:36:00.009Z,3.92
2018-11-14T00:38:29.097Z,3.20
2018-11-14T00:40:58.248Z,3.40
2018-11-14T00:43:27.338Z,3.95
2018-11-14T00:45:56.501Z,3.90
2018-11-14T00:48:25.739Z,4.22
2018-11-14T00:50:54.816Z,4.05
2018-11-14T00:53:23.989Z,3.85
2018-11-14T00:55:53.229Z,3.95
2018-11-14T00:58:22.408Z,3.40
2018-11-14T01:00:51.489Z,4.30
2018-11-14T01:03:21.016Z,3.60
2018-11-14T01:05:50.010Z,3.50
2018-11-14T01:08:19.098Z,3.40
2018-11-14T01:10:48.189Z,3.30
2018-11-14T01:13:17.374Z,3.62
2018-11-14T01:15:46.456Z,3.42
2018-11-14T01:18:15.557Z,3.40
2018-11-14T01:20:44.622Z,3.72
2018-11-14T01:23:13.872Z,3.72
2018-11-14T01:25:55.979Z,3.60
2018-11-14T01:28:25.188Z,4.37
2018-11-14T01:30:54.373Z,3.30
2018-11-14T01:33:23.449Z,3.35
2018-11-14T01:35:52.600Z,3.50
2018-11-14T01:38:21.633Z,3.92
2018-11-14T01:40:51.637Z,3.65
2018-11-14T01:43:20.868Z,3.90
2018-11-14T01:45:50.053Z,3.50
2018-11-14T01:48:19.264Z,3.62
2018-11-14T01:51:06.530Z,3.87
2018-11-14T01:53:35.791Z,4.03
2018-11-14T01:56:05.093Z,3.50
2018-11-14T01:58:34.172Z,3.62
2018-11-14T02:01:03.266Z,3.60
2018-11-14T02:03:32.337Z,3.47
2018-11-14T02:06:01.490Z,3.30
2018-11-14T02:08:30.658Z,4.12
2018-11-14T02:10:59.724Z,3.42
2018-11-14T02:13:28.853Z,3.75
2018-11-14T02:15:57.940Z,3.47
2018-11-14T02:18:27.145Z,3.67
2018-11-14T02:21:12.377Z,3.02
2018-11-14T02:23:43.248Z,3.47
2018-11-14T02:26:12.353Z,3.05
2018-11-14T02:28:41.425Z,3.30
2018-11-14T02:31:10.545Z,3.55
2018-11-14T02:33:39.650Z,3.20
2018-11-14T02:36:08.600Z,3.45
2018-11-14T02:38:37.733Z,3.47
2018-11-14T02:41:06.929Z,3.47
2018-11-14T02:43:36.113Z,3.85
2018-11-14T02:46:16.960Z,3.35
2018-11-14T02:48:46.189Z,3.40
2018-11-14T02:51:32.084Z,3.60
2018-11-14T02:54:01.281Z,3.22
2018-11-14T02:56:30.373Z,3.47
2018-11-14T02:58:59.443Z,3.67
2018-11-14T03:01:28.561Z,3.50
2018-11-14T03:03:57.524Z,3.50
2018-11-14T03:06:26.620Z,2.90
2018-11-14T03:08:55.642Z,3.27
2018-11-14T03:11:24.814Z,3.42
2018-11-14T03:13:53.933Z,3.90
2018-11-14T03:16:22.902Z,4.33
2018-11-14T03:18:52.014Z,3.40
2018-11-14T03:21:21.209Z,3.00
2018-11-14T03:23:50.281Z,3.40
2018-11-14T03:26:19.433Z,3.50
2018-11-14T03:28:48.577Z,3.30
2018-11-14T03:31:17.696Z,3.20
2018-11-14T03:33:46.769Z,4.60
2018-11-14T03:36:18.209Z,3.50
2018-11-14T03:38:47.753Z,3.50
2018-11-14T03:41:16.889Z,3.35
2018-11-14T03:43:46.401Z,3.25
2018-11-14T03:46:16.230Z,3.25
2018-11-14T03:48:45.837Z,3.65
2018-11-14T03:51:14.957Z,3.62
2018-11-14T03:53:44.057Z,2.93
2018-11-14T03:56:13.357Z,2.83
2018-11-14T03:58:42.529Z,3.12
2018-11-14T04:01:11.861Z,3.30
2018-11-14T04:03:41.029Z,3.33
2018-11-14T04:06:10.441Z,3.42
2018-11-14T04:08:39.566Z,3.62
2018-11-14T04:11:08.665Z,3.27
2018-11-14T04:13:37.745Z,4.37
2018-11-14T04:16:07.021Z,3.80
2018-11-14T04:18:36.129Z,3.87
2018-11-14T04:21:05.548Z,3.13
2018-11-14T04:23:39.080Z,3.07
2018-11-14T04:26:08.231Z,3.15
2018-11-14T04:28:37.289Z,3.62
2018-11-14T04:31:13.710Z,3.55
2018-11-14T04:33:42.757Z,3.42
2018-11-14T04:36:11.890Z,4.53
2018-11-14T04:38:40.985Z,3.60
2018-11-14T04:41:10.419Z,3.58
2018-11-14T04:43:39.687Z,3.30
2018-11-14T04:46:08.862Z,3.47
2018-11-14T04:48:38.189Z,4.55
2018-11-14T04:51:08.691Z,3.40
2018-11-14T04:53:38.009Z,3.35
2018-11-14T04:56:07.405Z,3.30
2018-11-14T04:58:36.472Z,3.77
2018-11-14T05:02:53.217Z,4.03
2018-11-14T05:05:24.047Z,3.87
2018-11-14T05:07:53.046Z,4.05
2018-11-14T05:10:26.414Z,3.67
2018-11-14T05:12:55.669Z,3.80
2018-11-14T05:15:26.044Z,3.90
2018-11-14T05:17:55.673Z,4.05
2018-11-14T05:20:24.837Z,3.45
2018-11-14T05:22:54.026Z,3.98
2018-11-14T05:25:23.238Z,3.70
2018-11-14T05:27:52.380Z,3.70
2018-11-14T05:30:22.753Z,5.10
2018-11-14T05:32:52.444Z,4.10
2018-11-14T05:35:21.812Z,4.30
2018-11-14T05:37:51.252Z,4.50
2018-11-14T05:40:21.770Z,3.87
2018-11-14T05:42:51.256Z,4.08
2018-11-14T05:45:28.065Z,3.95
2018-11-14T05:47:57.309Z,4.65
2018-11-14T05:50:26.493Z,4.03
2018-11-14T05:52:55.703Z,3.77
2018-11-14T05:55:24.869Z,3.92
2018-11-14T05:57:54.100Z,4.73
2018-11-14T06:00:28.286Z,4.20
2018-11-14T06:02:57.864Z,4.03
2018-11-14T06:05:27.089Z,4.10
2018-11-14T06:07:56.516Z,4.60
2018-11-14T06:10:25.620Z,4.22
2018-11-14T06:12:54.826Z,4.00
2018-11-14T06:15:23.967Z,5.20
2018-11-14T06:18:04.296Z,5.22
2018-11-14T06:20:33.669Z,4.40
2018-11-14T06:23:02.845Z,4.22
2018-11-14T06:25:33.038Z,4.40
2018-11-14T06:28:03.267Z,4.65
2018-11-14T06:30:32.967Z,5.00
2018-11-14T06:33:02.989Z,4.67
2018-11-14T06:35:32.245Z,4.22
2018-11-14T06:38:01.301Z,5.90
2018-11-14T06:40:30.657Z,6.90
2018-11-14T06:43:00.033Z,6.17
2018-11-14T06:45:30.377Z,9.13
2018-11-14T06:48:00.529Z,5.73
2018-11-14T06:50:29.773Z,7.15
2018-11-14T06:53:00.357Z,7.47
2018-11-14T06:55:29.396Z,8.45
2018-11-14T06:57:58.701Z,9.75
2018-11-14T07:00:35.037Z,8.95
2018-11-14T07:03:06.947Z,8.53
2018-11-14T07:05:50.758Z,8.10
2018-11-14T07:08:20.670Z,7.05
2018-11-14T07:10:49.855Z,8.10
2018-11-14T07:13:18.930Z,9.30
2018-11-14T07:15:47.949Z,8.88
2018-11-14T07:18:17.021Z,8.10
2018-11-14T07:20:46.320Z,8.55
2018-11-14T07:23:15.629Z,8.43
2018-11-14T07:25:44.870Z,11.10
2018-11-14T07:28:14.065Z,11.75
2018-11-14T07:30:43.357Z,13.10
2018-11-14T07:33:12.758Z,13.98
2018-11-14T07:35:41.828Z,16.02
2018-11-14T07:38:44.849Z,15.80
2018-11-14T07:41:30.368Z,23.50
2018-11-14T07:43:59.929Z,17.40
2018-11-14T07:46:30.268Z,20.60
2018-11-14T07:48:59.789Z,20.10
2018-11-14T07:51:28.912Z,19.60
2018-11-14T07:53:58.328Z,22.55
2018-11-14T07:56:27.567Z,24.40
2018-11-14T07:58:56.830Z,24.00
2018-11-14T08:01:26.049Z,28.47
2018-11-14T08:03:55.118Z,23.27
2018-11-14T08:06:24.351Z,22.93
2018-11-14T08:08:53.548Z,24.30
2018-11-14T08:11:22.725Z,23.30
2018-11-14T08:13:51.828Z,21.25
2018-11-14T08:16:20.894Z,18.55
2018-11-14T08:18:50.063Z,20.60
2018-11-14T08:21:19.093Z,19.52
2018-11-14T08:23:48.180Z,22.65
2018-11-14T08:26:17.291Z,20.87
2018-11-14T08:28:46.481Z,19.92
2018-11-14T08:31:15.709Z,23.02
2018-11-14T08:33:44.773Z,22.15
2018-11-14T08:36:13.998Z,22.25
2018-11-14T08:38:43.184Z,19.30
2018-11-14T08:41:12.369Z,24.35
2018-11-14T08:43:41.381Z,21.15
2018-11-14T08:46:10.622Z,18.65
2018-11-14T08:48:39.772Z,18.52
2018-11-14T08:51:08.877Z,19.73
2018-11-14T08:53:37.943Z,20.80
2018-11-14T08:56:07.169Z,18.82
2018-11-14T08:58:36.228Z,17.93
2018-11-14T09:01:05.625Z,17.02
2018-11-14T09:03:34.672Z,18.27
2018-11-14T09:06:03.963Z,18.77
2018-11-14T09:08:33.157Z,21.02
2018-11-14T09:11:02.409Z,19.67
2018-11-14T09:13:31.541Z,19.67
2018-11-14T09:16:00.734Z,20.37
2018-11-14T09:18:29.982Z,19.20
2018-11-14T09:20:59.113Z,19.03
2018-11-14T09:23:28.229Z,18.95
2018-11-14T09:25:57.330Z,18.27
2018-11-14T09:28:26.386Z,18.35
2018-11-14T09:30:55.422Z,21.12
2018-11-14T09:33:24.468Z,20.45
2018-11-14T09:35:53.626Z,19.40
2018-11-14T09:38:22.805Z,18.23
2018-11-14T09:40:51.906Z,19.57
2018-11-14T09:43:20.957Z,18.05
2018-11-14T09:45:57.128Z,17.48
2018-11-14T09:48:26.296Z,19.37
2018-11-14T09:51:07.476Z,18.50
2018-11-14T09:53:38.673Z,18.02
2018-11-14T09:56:07.922Z,18.37
2018-11-14T09:58:40.975Z,17.98
2018-11-14T10:01:10.311Z,18.13
2018-11-14T10:03:39.691Z,18.57
2018-11-14T10:06:08.907Z,18.02
2018-11-14T10:08:38.025Z,20.95
2018-11-14T10:11:07.250Z,19.10
2018-11-14T10:13:36.344Z,20.12
2018-11-14T10:16:17.530Z,21.15
2018-11-14T10:18:46.721Z,20.05
2018-11-14T10:21:15.830Z,20.10
2018-11-14T10:23:45.025Z,20.27
2018-11-14T10:26:14.193Z,19.75
2018-11-14T10:28:43.209Z,19.67
2018-11-14T10:31:12.415Z,20.35
2018-11-14T10:33:41.877Z,19.77
2018-11-14T10:36:11.013Z,19.62
2018-11-14T10:38:40.065Z,20.52
2018-11-14T10:41:09.102Z,20.45
2018-11-14T10:43:38.180Z,19.15
2018-11-14T10:46:07.367Z,19.15
2018-11-14T10:48:36.584Z,20.17
2018-11-14T10:51:05.745Z,20.60
2018-11-14T10:53:34.664Z,19.30
2018-11-14T10:56:03.760Z,18.75
2018-11-14T10:58:32.773Z,19.98
2018-11-14T11:01:07.097Z,19.70
2018-11-14T11:03:41.293Z,19.62
2018-11-14T11:06:15.677Z,19.87
2018-11-14T11:08:50.133Z,19.87
2018-11-14T11:11:23.355Z,20.97
2018-11-14T11:14:07.777Z,20.85
2018-11-14T11:16:40.988Z,21.05
2018-11-14T11:19:10.157Z,21.60
2018-11-14T11:21:39.333Z,22.85
2018-11-14T11:24:08.457Z,23.15
2018-11-14T11:26:37.812Z,21.75
2018-11-14T11:29:08.545Z,22.32
2018-11-14T11:31:37.794Z,23.57
2018-11-14T11:34:07.577Z,22.60
2018-11-14T11:36:36.709Z,24.12
2018-11-14T11:39:09.500Z,22.40
2018-11-14T11:41:38.985Z,22.55
2018-11-14T11:44:08.251Z,20.82
2018-11-14T11:46:38.038Z,20.70
2018-11-14T11:49:07.613Z,21.10
2018-11-14T11:51:36.764Z,21.05
2018-11-14T11:54:06.451Z,26.05
2018-11-14T11:56:35.805Z,18.85
2018-11-14T11:59:05.293Z,19.48
2018-11-14T12:01:34.664Z,18.73
2018-11-14T12:04:03.824Z,19.23
2018-11-14T12:06:33.192Z,19.30
2018-11-14T12:09:02.309Z,18.80
2018-11-14T12:11:31.617Z,18.98
2018-11-14T12:14:00.778Z,19.02
2018-11-14T12:16:30.100Z,18.82
2018-11-14T12:18:59.328Z,19.10
2018-11-14T12:21:28.461Z,20.00
2018-11-14T12:23:57.701Z,19.30
2018-11-14T12:26:26.989Z,68.07
2018-11-14T12:28:56.190Z,20.55
2018-11-14T12:31:25.246Z,19.10
2018-11-14T12:33:54.245Z,19.85
2018-11-14T12:36:23.397Z,19.82
2018-11-14T12:38:52.609Z,20.20
2018-11-14T12:41:21.717Z,19.67
2018-11-14T12:43:50.757Z,20.10
2018-11-14T12:46:19.957Z,19.23
2018-11-14T12:48:49.125Z,20.30
2018-11-14T12:51:18.354Z,19.55
2018-11-14T12:53:47.527Z,19.95
2018-11-14T12:56:16.849Z,18.55
2018-11-14T12:58:45.942Z,18.92
2018-11-14T13:01:15.153Z,18.40
2018-11-14T13:03:44.148Z,18.17
2018-11-14T13:06:13.200Z,18.82
2018-11-14T13:08:42.429Z,18.73
2018-11-14T13:11:11.626Z,18.57
2018-11-14T13:13:45.609Z,18.27
2018-11-14T13:16:15.344Z,18.20
2018-11-14T13:18:44.799Z,18.20
2018-11-14T13:21:14.204Z,17.62
2018-11-14T13:23:43.553Z,26.50
2018-11-14T13:26:12.758Z,20.40
2018-11-14T13:28:41.957Z,18.35
2018-11-14T13:31:11.246Z,18.92
2018-11-14T13:33:40.443Z,19.30
2018-11-14T13:36:09.536Z,19.35
2018-11-14T13:38:38.755Z,19.73
2018-11-14T13:41:07.929Z,19.23
2018-11-14T13:43:36.896Z,18.62
2018-11-14T13:46:06.220Z,19.30
2018-11-14T13:48:35.521Z,20.00
2018-11-14T13:51:04.967Z,19.55
2018-11-14T13:53:34.017Z,18.95
2018-11-14T13:56:03.121Z,19.67
2018-11-14T13:58:32.182Z,20.12
2018-11-14T14:01:01.259Z,20.40
2018-11-14T14:03:30.397Z,19.82
2018-11-14T14:05:59.371Z,20.37
2018-11-14T14:08:28.489Z,20.15
2018-11-14T14:10:57.485Z,20.07
2018-11-14T14:13:26.441Z,22.15
2018-11-14T14:15:55.581Z,21.62
2018-11-14T14:18:24.665Z,22.30
2018-11-14T14:20:53.748Z,20.50
2018-11-14T14:23:22.858Z,20.50
2018-11-14T14:25:52.058Z,21.25
2018-11-14T14:28:21.121Z,22.82
2018-11-14T14:30:50.285Z,22.10
2018-11-14T14:33:19.448Z,22.70
2018-11-14T14:35:48.502Z,23.10
2018-11-14T14:38:17.743Z,22.87
2018-11-14T14:40:46.929Z,22.05
2018-11-14T14:43:16.028Z,22.52
2018-11-14T14:45:45.017Z,22.90
2018-11-14T14:48:14.122Z,21.60
2018-11-14T14:50:43.315Z,22.37
2018-11-14T14:53:12.373Z,21.60
2018-11-14T14:55:41.499Z,22.77
2018-11-14T14:58:10.549Z,22.03
2018-11-14T15:00:39.664Z,22.35
2018-11-14T15:03:08.648Z,22.30
2018-11-14T15:05:37.755Z,22.02
2018-11-14T15:08:06.880Z,23.47
2018-11-14T15:10:35.968Z,22.98
2018-11-14T15:13:05.065Z,22.67
2018-11-14T15:15:34.057Z,22.50
2018-11-14T15:18:03.197Z,23.15
2018-11-14T15:20:32.205Z,21.87
2018-11-14T15:23:01.342Z,22.85
2018-11-14T15:25:30.505Z,21.50
2018-11-14T15:27:59.620Z,25.48
2018-11-14T15:30:30.229Z,21.52
2018-11-14T15:32:59.352Z,22.30
2018-11-14T15:35:28.457Z,23.13
2018-11-14T15:37:57.518Z,22.93
2018-11-14T15:40:27.508Z,23.63
2018-11-14T15:42:56.706Z,21.87
2018-11-14T15:45:28.128Z,22.10
2018-11-14T15:47:57.333Z,23.57
2018-11-14T15:50:27.745Z,25.02
2018-11-14T15:52:57.598Z,22.70
2018-11-14T15:55:26.857Z,23.15
2018-11-14T15:57:56.485Z,24.65
2018-11-14T16:00:26.829Z,27.02
2018-11-14T16:02:56.290Z,26.65
2018-11-14T16:05:26.349Z,27.43
2018-11-14T16:07:56.693Z,26.97
2018-11-14T16:10:26.784Z,27.62
2018-11-14T16:12:55.950Z,27.22
2018-11-14T16:15:26.425Z,27.32
2018-11-14T16:17:55.565Z,25.97
2018-11-14T16:20:25.708Z,28.95
2018-11-14T16:22:55.503Z,27.55
2018-11-14T16:25:25.557Z,26.55
2018-11-14T16:27:56.946Z,28.00
2018-11-14T16:30:27.337Z,28.83
2018-11-14T16:32:57.661Z,28.83
2018-11-14T16:35:26.808Z,30.12
2018-11-14T16:37:55.950Z,27.62
2018-11-14T16:40:28.129Z,26.00
2018-11-14T16:42:58.033Z,26.80
2018-11-14T16:45:27.290Z,26.77
2018-11-14T16:47:56.474Z,26.52
2018-11-14T16:50:25.853Z,24.30
2018-11-14T16:52:55.068Z,26.50
2018-11-14T16:55:24.444Z,26.97
2018-11-14T16:57:54.645Z,27.90
2018-11-14T17:00:28.709Z,27.05
2018-11-14T17:02:57.776Z,26.55
2018-11-14T17:05:28.093Z,27.73
2018-11-14T17:07:57.248Z,28.30
2018-11-14T17:10:44.512Z,25.57
2018-11-14T17:13:13.858Z,26.50
2018-11-14T17:15:43.857Z,25.68
2018-11-14T17:18:13.057Z,25.65
2018-11-14T17:20:48.199Z,25.48
2018-11-14T17:23:17.391Z,26.85
2018-11-14T17:25:46.590Z,26.17
2018-11-14T17:28:15.974Z,29.60
2018-11-14T17:30:56.145Z,28.98
2018-11-14T17:33:26.034Z,28.42
2018-11-14T17:35:55.576Z,29.92
2018-11-14T17:38:24.907Z,31.17
2018-11-14T17:40:54.038Z,29.10
2018-11-14T17:43:23.460Z,30.45
2018-11-14T17:45:52.665Z,30.12
2018-11-14T17:48:21.849Z,27.82
2018-11-14T17:50:51.091Z,31.35
2018-11-14T17:53:20.167Z,30.65
2018-11-14T17:55:49.317Z,32.47
2018-11-14T17:58:18.553Z,31.00
2018-11-14T18:00:55.251Z,32.53
2018-11-14T18:03:24.633Z,33.30
2018-11-14T18:05:53.613Z,35.40
2018-11-14T18:08:22.686Z,35.60
2018-11-14T18:10:51.973Z,37.30
2018-11-14T18:13:21.214Z,34.97
2018-11-14T18:15:51.637Z,34.65
2018-11-14T18:18:21.369Z,34.58
2018-11-14T18:20:51.181Z,35.78
2018-11-14T18:23:22.655Z,39.07
2018-11-14T18:25:54.626Z,35.63
2018-11-14T18:28:23.784Z,37.60
2018-11-14T18:30:52.917Z,39.33
2018-11-14T18:33:22.117Z,40.38
2018-11-14T18:35:51.465Z,40.73
2018-11-14T18:38:21.762Z,42.45
2018-11-14T18:40:51.083Z,40.05
2018-11-14T18:43:20.382Z,40.05
2018-11-14T18:45:50.032Z,39.58
2018-11-14T18:48:19.193Z,42.55
2018-11-14T18:50:51.700Z,41.18
2018-11-14T18:53:20.865Z,39.55
2018-11-14T18:55:49.951Z,40.70
2018-11-14T18:58:19.050Z,39.38
2018-11-14T19:00:48.185Z,37.53
2018-11-14T19:03:17.314Z,40.83
2018-11-14T19:05:46.433Z,38.53
2018-11-14T19:08:15.532Z,40.08
2018-11-14T19:10:44.600Z,37.13
2018-11-14T19:13:13.822Z,37.42
2018-11-14T19:15:43.129Z,35.68
2018-11-14T19:18:13.430Z,38.50
2018-11-14T19:20:43.187Z,39.18
2018-11-14T19:23:13.085Z,42.93
2018-11-14T19:25:42.366Z,38.85
2018-11-14T19:28:11.890Z,43.15
2018-11-14T19:30:42.265Z,40.65
2018-11-14T19:33:12.931Z,42.90
2018-11-14T19:35:42.877Z,41.02
2018-11-14T19:38:12.439Z,42.67
2018-11-14T19:40:41.545Z,43.17
2018-11-14T19:43:11.677Z,45.70
2018-11-14T19:45:41.974Z,45.17
2018-11-14T19:48:11.500Z,44.38
2018-11-14T19:50:41.207Z,39.70
2018-11-14T19:53:10.704Z,46.08
2018-11-14T19:55:41.126Z,43.50
2018-11-14T19:58:11.026Z,41.88
2018-11-14T20:00:41.210Z,45.08
2018-11-14T20:03:11.201Z,47.78
2018-11-14T20:05:40.928Z,41.90
2018-11-14T20:08:11.798Z,47.67
2018-11-14T20:10:41.240Z,44.38
2018-11-14T20:13:11.226Z,41.23
2018-11-14T20:15:40.764Z,42.83
2018-11-14T20:18:10.072Z,44.73
2018-11-14T20:20:40.281Z,44.90
2018-11-14T20:23:09.989Z,43.80
2018-11-14T20:25:39.178Z,44.20
2018-11-14T20:28:08.374Z,39.20
2018-11-14T20:30:38.762Z,42.03
2018-11-14T20:33:09.917Z,46.77
2018-11-14T20:35:39.577Z,43.15
2018-11-14T20:38:09.161Z,44.42
2018-11-14T20:40:53.982Z,48.60
2018-11-14T20:43:23.609Z,43.60
2018-11-14T20:45:52.937Z,46.50
2018-11-14T20:48:22.275Z,43.52
2018-11-14T20:50:51.913Z,44.03
2018-11-14T20:53:21.253Z,47.65
2018-11-14T20:55:50.602Z,44.75
2018-11-14T20:58:19.917Z,44.05
2018-11-14T21:00:49.149Z,40.70
2018-11-14T21:03:18.348Z,38.35
2018-11-14T21:05:47.453Z,36.77
2018-11-14T21:08:16.548Z,38.33
2018-11-14T21:10:45.525Z,35.38
2018-11-14T21:13:14.597Z,34.03
2018-11-14T21:15:43.616Z,32.93
2018-11-14T21:18:12.721Z,34.48
2018-11-14T21:20:41.777Z,33.20
2018-11-14T21:23:10.979Z,36.00
2018-11-14T21:25:39.992Z,35.85
2018-11-14T21:28:09.184Z,35.40
2018-11-14T21:30:38.361Z,33.45
2018-11-14T21:33:07.445Z,37.20
2018-11-14T21:35:37.568Z,35.45
2018-11-14T21:38:09.186Z,33.23
2018-11-14T21:40:38.349Z,33.13
2018-11-14T21:43:08.033Z,34.77
2018-11-14T21:45:37.261Z,34.55
2018-11-14T21:48:12.513Z,34.80
2018-11-14T21:50:41.725Z,34.55
2018-11-14T21:53:10.865Z,30.43
2018-11-14T21:55:39.876Z,30.68
2018-11-14T21:58:08.982Z,31.40
2018-11-14T22:00:39.154Z,31.20
2018-11-14T22:03:10.092Z,33.90
2018-11-14T22:05:39.706Z,31.82
2018-11-14T22:08:08.983Z,30.20
2018-11-14T22:10:38.249Z,28.45
2018-11-14T22:13:07.442Z,27.55
2018-11-14T22:15:36.513Z,28.70
2018-11-14T22:18:05.637Z,31.07
2018-11-14T22:20:34.724Z,30.00
2018-11-14T22:23:03.901Z,30.82
2018-11-14T22:25:33.577Z,31.25
2018-11-14T22:28:02.825Z,30.20
2018-11-14T22:30:33.000Z,27.25
2018-11-14T22:33:02.135Z,27.82
2018-11-14T22:35:32.106Z,28.67
2018-11-14T22:38:01.460Z,29.87
2018-11-14T22:40:31.510Z,26.60
2018-11-14T22:43:00.777Z,26.95
2018-11-14T22:45:31.980Z,26.85
2018-11-14T22:48:01.014Z,26.95
2018-11-14T22:50:30.163Z,26.00
2018-11-14T22:52:59.276Z,25.90
2018-11-14T22:55:28.515Z,27.87
2018-11-14T22:57:57.821Z,26.23
2018-11-14T23:00:31.321Z,26.90
2018-11-14T23:03:01.777Z,27.45
2018-11-14T23:05:31.065Z,27.52
2018-11-14T23:08:00.637Z,26.45
2018-11-14T23:10:29.985Z,27.37
2018-11-14T23:12:59.101Z,27.77
2018-11-14T23:15:28.392Z,28.73
2018-11-14T23:17:57.497Z,28.62
2018-11-14T23:20:26.624Z,27.10
2018-11-14T23:22:56.120Z,28.62
2018-11-14T23:25:25.221Z,29.48
2018-11-14T23:27:55.249Z,28.25
2018-11-14T23:30:25.425Z,27.77
2018-11-14T23:32:55.233Z,30.25
2018-11-14T23:35:25.544Z,30.57
2018-11-14T23:37:55.884Z,28.38
2018-11-14T23:40:25.122Z,28.75
2018-11-14T23:42:54.416Z,28.67
2018-11-14T23:45:24.205Z,27.95
2018-11-14T23:47:53.525Z,27.50
2018-11-14T23:50:23.752Z,29.52
2018-11-14T23:52:53.821Z,28.05
2018-11-14T23:55:23.705Z,29.40
2018-11-14T23:57:52.956Z,29.87
